ADDS - METARS form results

Aviation Digital Data Service (ADDS)

Output produced by METARs form (1104 UTC 19 April 2019)
found at http://aviationweather.gov/metar/data/
 
METAR text: KVYS 191055Z AUTO 35013G18KT 10SM SCT025 OVC034 06/03 A2982 RMK AO2 T00550025
Conditions at: KVYS (PERU , IL, US) observed 1055 UTC 19 April 2019
Temperature: 5.5°C (42°F)
Dewpoint: 2.5°C (36°F) [RH = 81%]
Pressure (altimeter): 29.82 inches Hg (1009.9 mb)
Winds: from the N (350 degrees) at 15 MPH (13 knots; 6.7 m/s)
gusting to 21 MPH (18 knots; 9.3 m/s)
Visibility: 10 or more miles (16+ km)
Ceiling: 3400 feet AGL
Clouds: scattered clouds at 2500 feet AGL
overcast cloud deck at 3400 feet AGL
Weather: automated observation with no human augmentation;
there may or may not be significant weather present at this time

METAR text: KVYS 191035Z AUTO 35013KT 10SM BKN028 OVC034 06/03 A2981 RMK AO2 T00560025
Conditions at: KVYS (PERU , IL, US) observed 1035 UTC 19 April 2019
Temperature: 5.6°C (42°F)
Dewpoint: 2.5°C (36°F) [RH = 80%]
Pressure (altimeter): 29.81 inches Hg (1009.6 mb)
Winds: from the N (350 degrees) at 15 MPH (13 knots; 6.7 m/s)
Visibility: 10 or more miles (16+ km)
Ceiling: 2800 feet AGL
Clouds: broken clouds at 2800 feet AGL
overcast cloud deck at 3400 feet AGL
Weather: automated observation with no human augmentation;
there may or may not be significant weather present at this time

METAR text: KVYS 191015Z AUTO 35014KT 10SM OVC028 06/03 A2981 RMK AO2 T00560025
Conditions at: KVYS (PERU , IL, US) observed 1015 UTC 19 April 2019
Temperature: 5.6°C (42°F)
Dewpoint: 2.5°C (36°F) [RH = 80%]
Pressure (altimeter): 29.81 inches Hg (1009.6 mb)
Winds: from the N (350 degrees) at 16 MPH (14 knots; 7.2 m/s)
Visibility: 10 or more miles (16+ km)
Ceiling: 2800 feet AGL
Clouds: overcast cloud deck at 2800 feet AGL
Weather: automated observation with no human augmentation;
there may or may not be significant weather present at this time